Roseburg, OR

12:34 PM PDT on August 30, 2014 (GMT -0700)
Roseburg Regional | Change Station
CLOSE
Current Station
Airport
Location: Roseburg,
Elevation: 525 ft
Nearby Weather Stations

Elev 525 ft 43.24 °N, 123.36 °W | Updated 41 minutes ago

Mostly Cloudy
Mostly Cloudy
73 °F
Feels Like 73 °F
N
5
Wind Variable Wind from SSE

Today
High -- | Low -- °F
--% Chance of Precip.
Yesterday
High -- | Low -- °F
Precip. -- in
6:35 AM 7:51 PM
Waxing Crescent, 24% visible
Pressure 29.99 in
Visibility 10.0 miles
Clouds Mostly Cloudy 10000 ft
Dew Point 50 °F
Humidity 44%
Rainfall 0.00 in
Snow Depth Not available.
UV 4 out of 12
Pollen 3.00 out of 12
Air Quality Not available.
Flu Activity Not available.
METAR KRBG 301853Z AUTO 15004KT 10SM BKN100 23/10 A3000 RMK AO2 SLP155 T02280100

More Conditions Fewer Conditions

Pressure 29.99 in
Visibility 10.0 miles
Clouds Mostly Cloudy 10000 ft
Dew Point 50 °F
Humidity 44%
Rainfall 0.00 in
Snow Depth Not available.
UV 4 out of 12
Pollen 3.00 out of 12
Air Quality Not available.
Flu Activity Not available.
METAR KRBG 301853Z AUTO 15004KT 10SM BKN100 23/10 A3000 RMK AO2 SLP155 T02280100

More Conditions Fewer Conditions

10-Day Weather Forecast

Almanac

Astronomy

Aug. 30, 2014 Rise Set
Actual Time 6:35 AM PDT 7:51 PM PDT
Civil Twilight 6:06 AM PDT 8:21 PM PDT
Nautical Twilight 5:30 AM PDT 8:56 PM PDT
Astronomical Twilight 4:53 AM PDT 9:33 PM PDT
Moon 11:37 AM PDT 10:20 PM PDT
Length of Visible Light 14h 14m
Length of Day
13h 16m
Tomorrow will be 2m 49s shorter.
Waxing Crescent, 24% of the Moon is Illuminated
Today
Waxing Crescent
Sep 2
First Quarter
Sep 8
Full
Sep 15
Last Quarter
Sep 24
New

Today's Extremes

State Highs State Lows

Community

WunderPhotos

Upload Photos

1,748,614 photos uploaded!

WunderBlogs® & News

Nearby

Snow Depth

Station Depth Elevation
Diamond Lake 0 in 5315 ft
Salt Creek Falls 0 in 4000 ft
Sevenmile Marsh 0 in 6200 ft
Fish Lake 0 in 4665 ft
Cold Springs Camp 0 in 6100 ft

Earthquake Activity

City Distance Mag. Time & Date
No recent earthquake activity has been reported nearby.
Minimum magnitude displayed is 2.5.

Coastal Water Temperatures

Place Temperature
No Stations Reporting

Nearby Weather Stations